Time;durP1;ratioP1;P1;durP2;ratioP2;P2;SDS_P1;SDS_P2;PMS_P1;PMS_P2;Temp;Humidity;BMP_temperature;BMP_pressure;BME280_temperature;BME280_humidity;BME280_pressure;Samples;Min_cycle;Max_cycle;Signal;HPM_P1;HPM_P2
2023/06/28 00:00:20;;;;;;;0.10;0.10;;;;;;;15.70;100.00;96790.34;5013977;28;20053;-79
2023/06/28 00:03:10;;;;;;;0.05;0.05;;;;;;;15.72;100.00;96790.91;5014322;28;20040;-79
2023/06/28 00:05:56;;;;;;;0.10;0.10;;;;;;;15.68;100.00;96791.72;5032360;28;20092;-79
2023/06/28 00:08:42;;;;;;;0.10;0.10;;;;;;;15.70;100.00;96787.66;5017682;28;20650;-79
2023/06/28 00:11:28;;;;;;;0.10;0.10;;;;;;;15.67;100.00;96782.81;5014732;28;20041;-79
2023/06/28 00:14:14;;;;;;;0.00;0.00;;;;;;;15.69;100.00;96780.63;5033996;28;20041;-79
2023/06/28 00:17:00;;;;;;;0.00;0.00;;;;;;;15.50;100.00;96796.56;5022362;28;20048;-78
2023/06/28 00:19:50;;;;;;;0.10;0.10;;;;;;;15.14;100.00;96787.66;5034795;28;20056;-79
2023/06/28 00:22:36;;;;;;;0.10;0.10;;;;;;;14.85;100.00;96781.97;5027165;28;20072;-79
2023/06/28 00:25:22;;;;;;;0.05;0.05;;;;;;;14.98;100.00;96799.53;5015806;28;20081;-79
2023/06/28 00:28:08;;;;;;;0.00;0.00;;;;;;;14.95;100.00;96798.19;5035476;28;20039;-78
2023/06/28 00:30:54;;;;;;;0.05;0.05;;;;;;;14.90;100.00;96791.97;5001742;28;20230;-79
2023/06/28 00:33:41;;;;;;;0.10;0.10;;;;;;;14.87;100.00;96796.03;5019472;28;20042;-78
2023/06/28 00:36:27;;;;;;;0.10;0.10;;;;;;;14.94;100.00;96803.81;5015479;28;20059;-79
2023/06/28 00:39:13;;;;;;;0.00;0.00;;;;;;;15.02;100.00;96800.63;5018264;28;20040;-79
2023/06/28 00:41:59;;;;;;;0.00;0.00;;;;;;;15.19;100.00;96790.38;5006059;28;20041;-79
2023/06/28 00:44:46;;;;;;;0.10;0.10;;;;;;;15.18;100.00;96785.25;5012049;28;20374;-79
2023/06/28 00:47:33;;;;;;;0.10;0.10;;;;;;;15.11;100.00;96792.81;5017943;28;20047;-79
2023/06/28 00:50:19;;;;;;;0.00;0.00;;;;;;;15.09;100.00;96798.44;5024416;28;20388;-79
2023/06/28 00:53:05;;;;;;;0.10;0.10;;;;;;;15.01;100.00;96791.69;5013891;28;20457;-79
2023/06/28 00:55:53;;;;;;;0.00;0.00;;;;;;;15.09;100.00;96798.44;5015489;28;20075;-79
2023/06/28 00:58:41;;;;;;;0.10;0.10;;;;;;;15.23;100.00;96809.50;5016668;28;20128;-79
2023/06/28 01:01:28;;;;;;;0.03;0.03;;;;;;;15.27;100.00;96795.22;5017410;28;20766;-79
2023/06/28 01:04:14;;;;;;;0.10;0.10;;;;;;;15.38;100.00;96806.81;5013582;28;20037;-79
2023/06/28 01:07:01;;;;;;;0.10;0.10;;;;;;;15.37;100.00;96797.09;5022532;28;20196;-79
2023/06/28 01:09:50;;;;;;;0.00;0.00;;;;;;;15.49;100.00;96813.03;5031209;28;20621;-79
2023/06/28 01:12:37;;;;;;;0.10;0.00;;;;;;;15.48;100.00;96806.78;5018591;28;20722;-79
2023/06/28 01:15:23;;;;;;;0.10;0.10;;;;;;;15.39;100.00;96813.81;5018455;28;20073;-79
2023/06/28 01:18:09;;;;;;;0.10;0.10;;;;;;;15.25;100.00;96812.72;5021201;28;20044;-79
2023/06/28 01:20:56;;;;;;;0.10;0.10;;;;;;;15.18;100.00;96798.75;5030819;28;20040;-79
2023/06/28 01:23:43;;;;;;;0.10;0.10;;;;;;;14.91;100.00;96802.47;5002545;28;20049;-79
2023/06/28 01:26:29;;;;;;;0.10;0.10;;;;;;;15.18;100.00;96813.03;5018413;28;20037;-79
2023/06/28 01:29:16;;;;;;;0.10;0.10;;;;;;;15.23;100.00;96815.69;5031168;28;20174;-79
2023/06/28 01:32:03;;;;;;;0.00;0.00;;;;;;;15.28;100.00;96810.31;5004067;28;20280;-79
2023/06/28 01:34:49;;;;;;;0.03;0.03;;;;;;;15.37;100.00;96815.16;5015084;28;20041;-79
2023/06/28 01:37:35;;;;;;;0.10;0.10;;;;;;;15.30;100.00;96816.25;5019626;28;20060;-79
2023/06/28 01:40:21;;;;;;;0.10;0.10;;;;;;;15.29;100.00;96811.13;5033713;28;20035;-79
2023/06/28 01:43:07;;;;;;;0.00;0.00;;;;;;;15.35;100.00;96815.44;5033516;28;20131;-79
2023/06/28 01:45:53;;;;;;;0.10;0.10;;;;;;;15.43;100.00;96814.09;5035123;28;20140;-79
2023/06/28 01:48:39;;;;;;;0.03;0.03;;;;;;;15.49;100.00;96818.41;5018674;28;20555;-78
2023/06/28 01:51:25;;;;;;;0.05;0.05;;;;;;;15.49;100.00;96815.72;5018583;28;20039;-79
2023/06/28 01:54:11;;;;;;;0.10;0.10;;;;;;;15.41;100.00;96819.78;5019349;28;20132;-79
2023/06/28 01:56:58;;;;;;;0.10;0.10;;;;;;;15.45;100.00;96817.31;5005251;28;20036;-78
2023/06/28 01:59:45;;;;;;;0.10;0.10;;;;;;;15.41;100.00;96816.22;5032674;28;20127;-79
2023/06/28 02:02:31;;;;;;;0.00;0.00;;;;;;;15.54;100.00;96831.88;5036733;28;20060;-79
2023/06/28 02:05:21;;;;;;;0.10;0.10;;;;;;;15.49;100.00;96818.41;5022543;28;20103;-78
2023/06/28 02:08:06;;;;;;;0.10;0.10;;;;;;;15.53;100.00;96822.97;5019770;28;20361;-79
2023/06/28 02:10:52;;;;;;;0.10;0.10;;;;;;;15.48;100.00;96817.59;5017141;28;20119;-78
2023/06/28 02:13:38;;;;;;;0.05;0.05;;;;;;;15.46;100.00;96817.03;5031537;28;20761;-79
2023/06/28 02:16:27;;;;;;;0.10;0.10;;;;;;;15.49;100.00;96819.22;5019783;28;20041;-79
2023/06/28 02:19:15;;;;;;;0.00;0.00;;;;;;;15.42;100.00;96812.47;5005830;28;20060;-79
2023/06/28 02:22:01;;;;;;;0.05;0.05;;;;;;;15.42;100.00;96807.09;5008320;28;20077;-79
2023/06/28 02:24:47;;;;;;;0.00;0.00;;;;;;;15.42;100.00;96801.69;5037744;28;20048;-79
2023/06/28 02:27:33;;;;;;;0.00;0.00;;;;;;;15.37;100.00;96804.38;5025656;28;20597;-79
2023/06/28 02:30:19;;;;;;;0.10;0.10;;;;;;;15.39;100.00;96804.91;5039790;28;20657;-79
2023/06/28 02:33:05;;;;;;;0.10;0.10;;;;;;;15.40;100.00;96812.72;5020392;28;20036;-79
2023/06/28 02:35:51;;;;;;;0.10;0.10;;;;;;;15.37;100.00;96805.19;5035800;28;20033;-79
2023/06/28 02:38:37;;;;;;;0.10;0.10;;;;;;;15.30;100.00;96797.38;5036655;28;20460;-79
2023/06/28 02:41:24;;;;;;;0.10;0.10;;;;;;;15.34;100.00;96819.22;5041098;28;20737;-78
2023/06/28 02:44:10;;;;;;;0.10;0.10;;;;;;;15.18;100.00;96804.13;5021991;28;20902;-79
2023/06/28 02:46:56;;;;;;;0.00;0.00;;;;;;;15.19;100.00;96819.22;5023648;28;20235;-78
2023/06/28 02:49:42;;;;;;;0.03;0.03;;;;;;;15.19;100.00;96819.22;5033193;28;20055;-78
2023/06/28 02:52:28;;;;;;;0.13;0.13;;;;;;;15.15;100.00;96818.94;5010297;28;21324;-79
2023/06/28 02:55:14;;;;;;;0.10;0.10;;;;;;;15.16;100.00;96815.16;5007739;28;20156;-78
2023/06/28 02:58:00;;;;;;;0.00;0.00;;;;;;;15.16;100.00;96827.81;5021741;28;20037;-78
2023/06/28 03:00:46;;;;;;;0.10;0.10;;;;;;;15.13;100.00;96814.91;5007882;28;20128;-79
2023/06/28 03:03:34;;;;;;;0.00;0.00;;;;;;;15.11;100.00;96825.94;5020230;28;20067;-78
2023/06/28 03:06:20;;;;;;;0.10;0.10;;;;;;;15.10;100.00;96821.66;5020191;28;20522;-78
2023/06/28 03:09:06;;;;;;;0.10;0.10;;;;;;;15.14;100.00;96833.50;5020620;28;20056;-79
2023/06/28 03:11:52;;;;;;;0.10;0.10;;;;;;;15.15;100.00;96840.50;5020793;28;20037;-78
2023/06/28 03:14:38;;;;;;;0.10;0.10;;;;;;;15.04;100.00;96834.28;5016726;28;20040;-78
2023/06/28 03:17:24;;;;;;;0.10;0.10;;;;;;;14.99;100.00;96834.28;5020239;28;20044;-78
2023/06/28 03:20:11;;;;;;;0.10;0.10;;;;;;;14.96;100.00;96831.31;5019930;28;20045;-79
2023/06/28 03:22:58;;;;;;;0.03;0.03;;;;;;;15.06;100.00;96834.03;5018974;28;20965;-78
2023/06/28 03:25:44;;;;;;;0.05;0.05;;;;;;;15.03;100.00;96832.69;5008402;28;20045;-78
2023/06/28 03:28:30;;;;;;;0.10;0.10;;;;;;;15.03;100.00;96838.06;5034112;28;20099;-79
2023/06/28 03:31:16;;;;;;;0.10;0.10;;;;;;;14.99;100.00;96828.09;5022509;28;20455;-78
2023/06/28 03:34:02;;;;;;;0.00;0.00;;;;;;;14.99;100.00;96825.38;5017980;28;20660;-79
2023/06/28 03:36:51;;;;;;;0.10;0.10;;;;;;;14.96;100.00;96821.34;5022354;28;20800;-79
2023/06/28 03:39:40;;;;;;;0.10;0.10;;;;;;;14.97;100.00;96817.56;5023579;28;20095;-79
2023/06/28 03:42:29;;;;;;;0.00;0.00;;;;;;;14.96;100.00;96818.66;5038071;28;20049;-79
2023/06/28 03:45:15;;;;;;;0.10;0.10;;;;;;;14.91;100.00;96820.53;5022500;28;20064;-79
2023/06/28 03:48:02;;;;;;;0.10;0.10;;;;;;;14.83;100.00;96824.56;5018016;28;20040;-80
2023/06/28 03:50:49;;;;;;;0.10;0.10;;;;;;;14.75;100.00;96823.19;5033771;28;20610;-80
2023/06/28 03:53:34;;;;;;;0.10;0.10;;;;;;;14.59;100.00;96826.13;5021446;28;20120;-80
2023/06/28 03:56:20;;;;;;;0.10;0.10;;;;;;;14.61;100.00;96826.66;5020771;28;20040;-80
2023/06/28 03:59:06;;;;;;;0.10;0.10;;;;;;;14.41;100.00;96808.53;5021070;28;20037;-80
2023/06/28 04:01:52;;;;;;;0.00;0.00;;;;;;;14.70;100.00;96831.25;5020955;28;20578;-79
2023/06/28 04:04:38;;;;;;;0.10;0.10;;;;;;;14.80;100.00;96816.22;5037110;28;20775;-79
2023/06/28 04:07:24;;;;;;;0.10;0.10;;;;;;;14.99;100.00;96836.16;5018525;28;20037;-79
2023/06/28 04:10:10;;;;;;;0.10;0.10;;;;;;;15.00;100.00;96827.00;5037193;28;20809;-78
2023/06/28 04:12:56;;;;;;;0.10;0.10;;;;;;;15.05;100.00;96829.72;5039635;28;20047;-78
2023/06/28 04:15:42;;;;;;;0.00;0.00;;;;;;;15.09;100.00;96825.38;5007965;28;20458;-79
2023/06/28 04:18:28;;;;;;;0.10;0.10;;;;;;;15.17;100.00;96838.34;5012302;28;20660;-79
2023/06/28 04:21:14;;;;;;;0.10;0.10;;;;;;;15.17;100.00;96822.16;5036847;28;20044;-79
2023/06/28 04:24:00;;;;;;;0.10;0.10;;;;;;;15.24;100.00;96827.28;5039710;28;20067;-78
2023/06/28 04:26:46;;;;;;;0.05;0.05;;;;;;;15.07;100.00;96822.16;5022074;28;20120;-79
2023/06/28 04:29:31;;;;;;;0.00;0.00;;;;;;;15.16;100.00;96834.03;5036042;28;20643;-79
2023/06/28 04:32:23;;;;;;;0.00;0.00;;;;;;;15.25;100.00;96812.72;5037715;28;20056;-79
2023/06/28 04:35:09;;;;;;;0.10;0.10;;;;;;;15.13;100.00;96804.94;5038276;28;20190;-79
2023/06/28 04:37:56;;;;;;;0.00;0.00;;;;;;;15.05;100.00;96794.69;5036439;28;20161;-79
2023/06/28 04:40:42;;;;;;;0.13;0.13;;;;;;;15.12;100.00;96808.69;5037236;28;20079;-79
2023/06/28 04:43:39;;;;;;;0.10;0.10;;;;;;;15.29;100.00;96809.25;5008212;28;20049;-79
2023/06/28 04:46:29;;;;;;;0.10;0.10;;;;;;;15.45;100.00;96811.94;5039098;28;20203;-79
2023/06/28 04:49:14;;;;;;;0.10;0.10;;;;;;;15.51;100.00;96806.28;5016716;28;20068;-79
2023/06/28 04:52:01;;;;;;;0.10;0.10;;;;;;;15.59;100.00;96821.91;5038671;28;20267;-79
2023/06/28 04:54:47;;;;;;;0.10;0.10;;;;;;;15.73;100.00;96824.88;5017227;28;20048;-79
2023/06/28 04:57:34;;;;;;;0.10;0.10;;;;;;;15.75;100.00;96828.13;5007423;28;20760;-79
2023/06/28 05:00:20;;;;;;;0.20;0.20;;;;;;;15.74;100.00;96807.63;5004343;28;20036;-79
2023/06/28 05:03:07;;;;;;;0.10;0.10;;;;;;;15.80;100.00;96803.84;5037057;28;20555;-79
2023/06/28 05:05:54;;;;;;;0.10;0.10;;;;;;;15.86;100.00;96812.72;5035987;28;20032;-79
2023/06/28 05:08:40;;;;;;;0.10;0.10;;;;;;;15.90;100.00;96808.41;5021209;28;20057;-79
2023/06/28 05:11:26;;;;;;;0.10;0.10;;;;;;;15.97;100.00;96810.81;5034942;28;20108;-79
2023/06/28 05:14:12;;;;;;;0.10;0.10;;;;;;;15.98;100.00;96809.72;5021186;28;20032;-80
2023/06/28 05:16:58;;;;;;;0.10;0.10;;;;;;;15.98;100.00;96798.94;5020075;28;20064;-79
2023/06/28 05:19:44;;;;;;;0.10;0.10;;;;;;;16.07;100.00;96802.69;5004406;28;20051;-79
2023/06/28 05:22:29;;;;;;;0.10;0.10;;;;;;;16.27;100.00;96813.41;5007835;28;20040;-80
2023/06/28 05:25:16;;;;;;;0.13;0.13;;;;;;;16.30;100.00;96807.44;5034952;28;20084;-79
2023/06/28 05:28:02;;;;;;;0.05;0.05;;;;;;;16.37;100.00;96817.97;5005693;28;20262;-80
2023/06/28 05:30:48;;;;;;;0.17;0.17;;;;;;;16.51;100.00;96818.97;5005515;28;20052;-79
2023/06/28 05:33:34;;;;;;;0.10;0.10;;;;;;;16.43;100.00;96812.25;5005779;28;20123;-80
2023/06/28 05:36:22;;;;;;;0.10;0.10;;;;;;;16.28;100.00;96804.22;5005013;28;20079;-79
2023/06/28 05:39:09;;;;;;;0.10;0.10;;;;;;;16.29;100.00;96819.34;5007709;28;20072;-79
2023/06/28 05:41:55;;;;;;;0.10;0.10;;;;;;;16.26;100.00;96809.06;5017099;28;20476;-79
2023/06/28 05:44:41;;;;;;;0.10;0.10;;;;;;;16.35;100.00;96803.94;5002816;28;20047;-79
2023/06/28 05:47:27;;;;;;;0.10;0.10;;;;;;;16.48;100.00;96803.31;5006569;28;20483;-79
2023/06/28 05:50:15;;;;;;;0.10;0.10;;;;;;;16.55;100.00;96811.13;5019188;28;20049;-80
2023/06/28 05:53:01;;;;;;;0.10;0.10;;;;;;;16.68;100.00;96818.63;5011427;28;20110;-79
2023/06/28 05:55:47;;;;;;;0.10;0.10;;;;;;;16.81;100.00;96820.75;5004698;28;20049;-79
2023/06/28 05:58:33;;;;;;;0.00;0.00;;;;;;;16.91;100.00;96814.47;5020330;28;20049;-80
2023/06/28 06:01:19;;;;;;;0.10;0.10;;;;;;;16.95;100.00;96807.41;5006952;28;20052;-79
2023/06/28 06:04:05;;;;;;;0.10;0.10;;;;;;;17.09;100.00;96818.41;5029504;28;20041;-80
2023/06/28 06:06:51;;;;;;;0.10;0.10;;;;;;;17.17;100.00;96825.91;5006351;28;20471;-79
2023/06/28 06:09:37;;;;;;;0.08;0.08;;;;;;;17.17;100.00;96825.91;5001161;28;20053;-80
2023/06/28 06:12:24;;;;;;;0.10;0.10;;;;;;;17.16;100.00;96816.19;5018345;28;20045;-80
2023/06/28 06:15:09;;;;;;;0.00;0.00;;;;;;;17.15;100.00;96819.97;5018414;28;20075;-80
2023/06/28 06:17:56;;;;;;;0.10;0.10;;;;;;;17.06;100.00;96808.16;4989320;28;20037;-80
2023/06/28 06:20:42;;;;;;;0.10;0.10;;;;;;;16.85;100.00;96808.28;5003638;28;20307;-80
2023/06/28 06:23:28;;;;;;;0.10;0.10;;;;;;;16.84;100.00;96813.97;5003168;28;20048;-79
2023/06/28 06:26:14;;;;;;;0.08;0.08;;;;;;;16.96;100.00;96806.31;5003556;28;20468;-79
2023/06/28 06:29:01;;;;;;;0.10;0.10;;;;;;;17.17;100.00;96821.31;5015880;28;20064;-79
2023/06/28 06:31:47;;;;;;;0.10;0.10;;;;;;;17.40;100.00;96808.97;4997934;28;20513;-80
2023/06/28 06:34:33;;;;;;;0.10;0.10;;;;;;;17.71;100.00;96814.13;5000684;28;20614;-80
2023/06/28 06:37:19;;;;;;;0.10;0.10;;;;;;;17.84;100.00;96809.97;4990699;28;20049;-80
2023/06/28 06:40:05;;;;;;;0.10;0.10;;;;;;;17.83;100.00;96811.88;5003889;28;20095;-80
2023/06/28 06:42:51;;;;;;;0.10;0.10;;;;;;;17.72;100.00;96802.22;4986959;28;20041;-80
2023/06/28 06:45:37;;;;;;;0.10;0.10;;;;;;;18.02;100.00;96801.91;5001029;28;20119;-79
2023/06/28 06:48:23;;;;;;;0.10;0.10;;;;;;;18.10;100.00;96803.97;5023258;28;20045;-79
2023/06/28 06:51:09;;;;;;;0.10;0.10;;;;;;;18.12;100.00;96813.72;5004632;28;20565;-79
2023/06/28 06:53:55;;;;;;;0.10;0.10;;;;;;;18.12;100.00;96811.81;5007371;28;20112;-79
2023/06/28 06:56:41;;;;;;;0.10;0.10;;;;;;;18.21;100.00;96817.38;5005603;28;20045;-79
2023/06/28 06:59:27;;;;;;;0.10;0.10;;;;;;;18.23;100.00;96810.59;5017585;28;20040;-79
2023/06/28 07:02:13;;;;;;;0.10;0.10;;;;;;;18.25;100.00;96811.13;5005278;28;20052;-79
2023/06/28 07:04:59;;;;;;;0.10;0.10;;;;;;;18.27;100.00;96821.66;5016474;28;20052;-79
2023/06/28 07:07:45;;;;;;;0.10;0.10;;;;;;;18.41;100.00;96821.78;4990773;28;20046;-79
2023/06/28 07:10:31;;;;;;;0.08;0.08;;;;;;;18.54;100.00;96813.75;5023738;28;20040;-79
2023/06/28 07:13:17;;;;;;;0.10;0.10;;;;;;;18.74;100.00;96815.41;5037356;28;20551;-79
2023/06/28 07:16:04;;;;;;;0.00;0.00;;;;;;;18.64;100.00;96816.31;5020713;28;20041;-79
2023/06/28 07:18:50;;;;;;;0.05;0.05;;;;;;;18.00;100.00;96819.53;5024448;28;20060;-79
2023/06/28 07:21:36;;;;;;;0.10;0.10;;;;;;;17.27;100.00;96825.81;5039480;28;20047;-79
2023/06/28 07:24:22;;;;;;;0.03;0.03;;;;;;;17.60;100.00;96818.81;5037750;28;20569;-79
2023/06/28 07:27:08;;;;;;;0.10;0.10;;;;;;;18.05;100.00;96831.13;5040865;28;20079;-79
2023/06/28 07:29:55;;;;;;;0.10;0.10;;;;;;;18.47;100.00;96820.63;5022752;28;20814;-79
2023/06/28 07:32:41;;;;;;;0.10;0.10;;;;;;;19.00;100.00;96817.78;5036336;28;20452;-79
2023/06/28 07:35:26;;;;;;;0.10;0.10;;;;;;;19.02;100.00;96808.25;5039231;28;20044;-79
2023/06/28 07:38:12;;;;;;;0.10;0.10;;;;;;;18.96;99.20;96811.31;5023007;28;20040;-80
2023/06/28 07:40:58;;;;;;;0.10;0.10;;;;;;;19.38;99.41;96808.50;5037396;28;20048;-79
2023/06/28 07:43:44;;;;;;;0.10;0.10;;;;;;;19.55;95.97;96818.81;5033988;28;20467;-79
2023/06/28 07:46:31;;;;;;;0.10;0.10;;;;;;;19.59;97.58;96795.41;5034667;28;20661;-79
2023/06/28 07:49:16;;;;;;;0.10;0.10;;;;;;;19.62;96.97;96802.19;5037140;28;20090;-79
2023/06/28 07:52:02;;;;;;;0.10;0.10;;;;;;;19.70;97.29;96805.00;5039134;28;20042;-79
2023/06/28 07:54:48;;;;;;;0.10;0.10;;;;;;;18.86;94.09;96796.00;5036021;28;20582;-79
2023/06/28 07:57:34;;;;;;;0.10;0.10;;;;;;;18.91;99.74;96804.06;5022307;28;20392;-79
2023/06/28 08:00:20;;;;;;;0.10;0.10;;;;;;;19.51;96.39;96801.50;5037020;28;20040;-79
2023/06/28 08:03:06;;;;;;;0.00;0.00;;;;;;;19.89;97.38;96809.56;5039829;28;20045;-79
2023/06/28 08:05:51;;;;;;;0.08;0.08;;;;;;;20.22;95.22;96797.50;5034576;28;20032;-79
2023/06/28 08:08:37;;;;;;;0.10;0.10;;;;;;;20.62;92.86;96808.69;5012671;28;20049;-79
2023/06/28 08:11:23;;;;;;;0.10;0.10;;;;;;;20.49;92.12;96809.50;5039418;28;20782;-79
2023/06/28 08:14:09;;;;;;;0.08;0.08;;;;;;;20.52;90.01;96798.03;5036178;28;20715;-79
2023/06/28 08:16:55;;;;;;;0.10;0.10;;;;;;;20.57;89.82;96787.06;5039243;28;20044;-79
2023/06/28 08:19:41;;;;;;;0.10;0.10;;;;;;;20.62;91.38;96797.00;5035623;28;20045;-79
2023/06/28 08:22:27;;;;;;;0.10;0.10;;;;;;;20.76;90.66;96811.38;5037070;28;20044;-79
2023/06/28 08:25:13;;;;;;;0.10;0.10;;;;;;;20.69;89.50;96819.13;5019466;28;20505;-79
2023/06/28 08:27:58;;;;;;;0.10;0.10;;;;;;;20.71;89.59;96812.31;5034349;28;20068;-79
2023/06/28 08:30:44;;;;;;;0.10;0.10;;;;;;;20.79;88.57;96813.50;5035154;28;20229;-79
2023/06/28 08:33:30;;;;;;;0.10;0.10;;;;;;;21.33;87.48;96806.31;5035663;28;20037;-79
2023/06/28 08:36:16;;;;;;;0.10;0.10;;;;;;;21.32;86.91;96808.25;5019458;28;20070;-79
2023/06/28 08:39:02;;;;;;;0.10;0.10;;;;;;;21.58;87.21;96807.59;5022466;28;20044;-79
2023/06/28 08:41:48;;;;;;;0.10;0.10;;;;;;;21.93;83.39;96809.41;5021498;28;20056;-79
2023/06/28 08:44:38;;;;;;;0.10;0.10;;;;;;;22.05;81.61;96805.31;5029920;28;20037;-79
2023/06/28 08:47:31;;;;;;;0.10;0.10;;;;;;;21.50;81.91;96813.78;5019451;28;20037;-79
2023/06/28 08:50:17;;;;;;;0.10;0.10;;;;;;;21.67;80.93;96811.97;5037230;28;20135;-79
2023/06/28 08:53:08;;;;;;;0.10;0.10;;;;;;;21.83;81.80;96792.53;5037942;28;20044;-79
2023/06/28 08:55:55;;;;;;;0.00;0.00;;;;;;;22.30;82.28;96792.91;5037751;28;20798;-79
2023/06/28 08:58:41;;;;;;;0.00;0.00;;;;;;;22.17;82.35;96797.34;5034622;28;20041;-79
2023/06/28 09:01:29;;;;;;;0.10;0.10;;;;;;;21.57;85.30;96803.28;5008884;28;20056;-79
2023/06/28 09:04:15;;;;;;;0.10;0.10;;;;;;;21.52;84.67;96806.13;5023116;28;20097;-79
2023/06/28 09:07:02;;;;;;;0.10;0.10;;;;;;;21.66;85.16;96809.56;4993436;28;20063;-79
2023/06/28 09:09:49;;;;;;;0.10;0.10;;;;;;;21.96;84.30;96816.97;5029766;28;20438;-79
2023/06/28 09:12:37;;;;;;;0.10;0.10;;;;;;;22.25;80.07;96816.47;5033455;28;20071;-79
2023/06/28 09:15:23;;;;;;;0.10;0.10;;;;;;;22.22;80.07;96810.84;5018231;28;20256;-80
2023/06/28 09:18:09;;;;;;;0.00;0.00;;;;;;;22.36;81.68;96805.28;5036844;28;20045;-79
2023/06/28 09:20:56;;;;;;;0.10;0.10;;;;;;;23.13;78.75;96817.50;5034737;28;20524;-79
2023/06/28 09:23:42;;;;;;;0.10;0.10;;;;;;;23.35;76.61;96800.97;5000197;28;20041;-80
2023/06/28 09:26:33;;;;;;;0.10;0.10;;;;;;;23.31;77.69;96808.19;5035629;28;20503;-79
2023/06/28 09:29:18;;;;;;;0.10;0.10;;;;;;;23.05;78.87;96789.09;5012779;28;20071;-78
2023/06/28 09:32:05;;;;;;;0.00;0.00;;;;;;;23.72;76.77;96810.41;5020799;28;20230;-79
2023/06/28 09:34:51;;;;;;;0.00;0.00;;;;;;;23.43;76.91;96818.47;5019991;28;20546;-79
2023/06/28 09:37:38;;;;;;;0.10;0.10;;;;;;;23.14;78.34;96814.44;5035420;28;20531;-79
2023/06/28 09:40:24;;;;;;;0.10;0.10;;;;;;;23.26;78.47;96802.88;5033062;28;20036;-79
2023/06/28 09:43:19;;;;;;;0.10;0.10;;;;;;;23.82;77.12;96804.63;5035848;28;20427;-79
2023/06/28 09:46:13;;;;;;;0.10;0.10;;;;;;;24.41;73.89;96806.66;5018153;28;20490;-79
2023/06/28 09:48:58;;;;;;;0.10;0.10;;;;;;;24.15;77.46;96804.81;5026948;28;20049;-80
2023/06/28 09:51:44;;;;;;;0.10;0.10;;;;;;;24.23;75.73;96803.19;4991129;28;20174;-79
2023/06/28 09:54:32;;;;;;;0.10;0.10;;;;;;;23.94;77.24;96803.94;4997618;28;20686;-78
2023/06/28 09:57:18;;;;;;;0.10;0.10;;;;;;;24.00;76.34;96802.63;5016519;28;20687;-78
2023/06/28 10:00:05;;;;;;;0.10;0.10;;;;;;;24.23;77.90;96800.47;5006275;28;20052;-78
2023/06/28 10:02:58;;;;;;;0.10;0.10;;;;;;;23.79;76.19;96807.97;5016267;28;20095;-78
2023/06/28 10:05:47;;;;;;;0.08;0.08;;;;;;;23.44;80.18;96809.16;5033455;28;20141;-79
2023/06/28 10:12:50;;;;;;;0.10;0.10;;;;;;;22.72;81.47;96811.34;5036147;28;20056;-79
2023/06/28 10:15:58;;;;;;;0.10;0.10;;;;;;;23.56;78.26;96810.09;5036478;28;20045;-79
2023/06/28 10:18:44;;;;;;;0.10;0.10;;;;;;;23.79;75.27;96807.97;5016639;28;20162;-79
2023/06/28 10:21:31;;;;;;;0.05;0.05;;;;;;;23.77;75.27;96809.44;5033280;28;20426;-79
2023/06/28 10:24:17;;;;;;;0.00;0.00;;;;;;;23.74;76.38;96815.56;5021047;28;20036;-79
2023/06/28 10:27:04;;;;;;;0.10;0.10;;;;;;;23.70;75.92;96823.59;5038704;28;20070;-79
2023/06/28 10:29:53;;;;;;;0.10;0.10;;;;;;;23.86;76.20;96807.50;5041004;28;20123;-78
2023/06/28 10:32:39;;;;;;;0.10;0.10;;;;;;;24.33;71.74;96818.44;5037999;28;20510;-78
2023/06/28 10:35:26;;;;;;;0.10;0.10;;;;;;;25.19;70.56;96812.47;5024845;28;20051;-78
2023/06/28 10:38:12;;;;;;;0.00;0.00;;;;;;;24.62;76.41;96801.25;5040689;28;20040;-78
2023/06/28 10:41:00;;;;;;;0.10;0.10;;;;;;;24.10;76.62;96810.47;5036905;28;20157;-78
2023/06/28 10:43:46;;;;;;;0.10;0.10;;;;;;;23.67;73.55;96815.25;5034882;28;20541;-78
2023/06/28 10:46:33;;;;;;;0.10;0.10;;;;;;;23.99;73.85;96809.22;5043477;28;20282;-78
2023/06/28 10:49:20;;;;;;;0.00;0.00;;;;;;;25.16;68.59;96794.00;5037660;28;20045;-77
2023/06/28 10:52:16;;;;;;;0.10;0.10;;;;;;;25.68;64.14;96799.00;5036644;28;20491;-78
2023/06/28 10:55:03;;;;;;;0.10;0.10;;;;;;;26.26;63.04;96794.34;5039098;28;21131;-78
2023/06/28 10:58:06;;;;;;;0.00;0.00;;;;;;;26.60;62.90;96795.84;5038648;28;20045;-78
2023/06/28 11:00:53;;;;;;;0.03;0.03;;;;;;;26.84;55.74;96789.53;5036297;28;20053;-78
2023/06/28 11:03:41;;;;;;;0.10;0.10;;;;;;;26.70;60.07;96780.09;5037284;28;20240;-78
2023/06/28 11:06:28;;;;;;;0.10;0.10;;;;;;;27.13;59.43;96787.69;5022285;28;20544;-78
2023/06/28 11:09:16;;;;;;;0.10;0.10;;;;;;;27.43;58.44;96783.47;5032668;28;20212;-78
2023/06/28 11:12:03;;;;;;;0.00;0.00;;;;;;;27.67;55.31;96787.28;5037712;28;20044;-78
2023/06/28 11:15:06;;;;;;;0.05;0.05;;;;;;;27.06;53.71;96781.97;5033001;28;20040;-78
2023/06/28 11:17:53;;;;;;;0.03;0.03;;;;;;;26.35;60.10;96783.25;5039778;28;20040;-79
2023/06/28 11:20:57;;;;;;;0.00;0.00;;;;;;;26.92;59.05;96791.34;5017635;28;20041;-78
2023/06/28 11:23:45;;;;;;;0.00;0.00;;;;;;;26.81;61.06;96789.44;5031376;28;20063;-78
2023/06/28 11:26:34;;;;;;;0.10;0.10;;;;;;;26.34;58.35;96790.69;5040092;28;20566;-79
2023/06/28 11:29:20;;;;;;;0.03;0.03;;;;;;;26.48;63.50;96795.06;5035721;28;20045;-78
2023/06/28 11:32:07;;;;;;;0.10;0.10;;;;;;;26.09;64.67;96798.09;5039475;28;20053;-78
2023/06/28 11:34:55;;;;;;;0.00;0.00;;;;;;;25.67;70.13;96791.09;5033409;28;20454;-78
2023/06/28 11:37:41;;;;;;;0.10;0.10;;;;;;;28.51;55.25;96782.38;5039098;28;20494;-78
2023/06/28 11:40:28;;;;;;;0.10;0.10;;;;;;;30.16;42.39;96787.44;5039098;28;20048;-78
2023/06/28 11:43:13;;;;;;;0.10;0.10;;;;;;;29.88;43.04;96784.94;5037047;28;20064;-78
2023/06/28 11:45:59;;;;;;;0.10;0.10;;;;;;;32.94;34.58;96776.19;5037302;28;20036;-78
2023/06/28 11:48:47;;;;;;;0.00;0.00;;;;;;;32.57;33.67;96776.31;5018307;28;20143;-79
2023/06/28 11:51:34;;;;;;;0.00;0.00;;;;;;;29.73;44.55;96777.56;5022802;28;20127;-79
2023/06/28 11:54:20;;;;;;;0.10;0.10;;;;;;;31.78;37.07;96775.56;5038334;28;20521;-78
2023/06/28 11:57:06;;;;;;;0.10;0.10;;;;;;;32.20;37.40;96773.59;5021530;28;20861;-79
2023/06/28 11:59:52;;;;;;;0.10;0.10;;;;;;;32.25;36.07;96779.59;5033428;28;20118;-79
2023/06/28 12:02:48;;;;;;;0.00;0.00;;;;;;;30.64;39.15;96784.25;5037495;28;20110;-79
2023/06/28 12:05:34;;;;;;;0.03;0.03;;;;;;;29.65;44.49;96793.19;5034147;28;20048;-78
2023/06/28 12:08:20;;;;;;;0.00;0.00;;;;;;;29.87;44.22;96790.81;5012568;28;20054;-79
2023/06/28 12:11:11;;;;;;;0.00;0.00;;;;;;;29.51;43.52;96784.63;5016528;28;20482;-79
2023/06/28 12:14:03;;;;;;;0.10;0.10;;;;;;;29.65;44.70;96786.84;5019250;28;20041;-79
2023/06/28 12:16:50;;;;;;;0.10;0.10;;;;;;;30.07;43.17;96795.13;5039566;28;20049;-79
2023/06/28 12:19:40;;;;;;;0.10;0.10;;;;;;;31.93;38.14;96776.53;5035774;28;20350;-79
2023/06/28 12:22:41;;;;;;;0.10;0.10;;;;;;;32.01;36.61;96772.66;5035671;28;20479;-79
2023/06/28 12:25:27;;;;;;;0.10;0.10;;;;;;;30.24;41.27;96780.88;5035581;28;20040;-79
2023/06/28 12:28:14;;;;;;;0.00;0.00;;;;;;;30.30;39.99;96786.09;5037329;28;20041;-79
2023/06/28 12:31:00;;;;;;;0.10;0.10;;;;;;;29.25;49.18;96781.69;5018141;28;20067;-79
2023/06/28 12:33:52;;;;;;;0.10;0.10;;;;;;;30.69;41.01;96770.16;5018641;28;21039;-79
2023/06/28 12:36:41;;;;;;;0.00;0.00;;;;;;;28.92;50.08;96780.19;5035764;28;20071;-79
2023/06/28 12:39:31;;;;;;;0.08;0.08;;;;;;;29.36;46.49;96771.69;5037922;28;20044;-79
2023/06/28 12:42:17;;;;;;;0.08;0.08;;;;;;;29.20;46.29;96779.22;5038687;28;20049;-80
2023/06/28 12:45:03;;;;;;;0.03;0.03;;;;;;;29.24;46.30;96769.88;5034801;28;20066;-79
2023/06/28 12:47:49;;;;;;;0.10;0.10;;;;;;;31.19;39.02;96762.56;5036424;28;20136;-78
2023/06/28 12:50:35;;;;;;;0.10;0.10;;;;;;;31.63;37.29;96765.50;5036336;28;20404;-78
2023/06/28 12:53:21;;;;;;;0.08;0.08;;;;;;;31.71;37.43;96769.94;5035113;28;20048;-79
2023/06/28 12:56:07;;;;;;;0.00;0.00;;;;;;;30.73;39.28;96771.81;5034947;28;20048;-79
2023/06/28 12:58:53;;;;;;;0.00;0.00;;;;;;;29.73;43.98;96774.81;5036916;28;20077;-78
2023/06/28 13:01:39;;;;;;;0.10;0.10;;;;;;;30.30;42.83;96775.06;5039499;28;20430;-79
2023/06/28 13:04:35;;;;;;;0.10;0.10;;;;;;;32.24;35.06;96758.63;5019875;28;20047;-79